Time;durP1;ratioP1;P1;durP2;ratioP2;P2;SDS_P1;SDS_P2;PMS_P1;PMS_P2;Temp;Humidity;BMP_temperature;BMP_pressure;BME280_temperature;BME280_humidity;BME280_pressure;Samples;Min_cycle;Max_cycle;Signal;HPM_P1;HPM_P2
2023/10/31 00:01:35;;;;;;;;;;;11.90;99.90;;;;;;5064570;28;19964;-75
2023/10/31 00:04:01;;;;;;;;;;;11.90;99.90;;;;;;5064114;28;19921;-75
2023/10/31 00:06:28;;;;;;;;;;;11.90;99.90;;;;;;5064301;28;19988;-75
2023/10/31 00:08:56;;;;;;;;;;;11.90;99.90;;;;;;5062639;28;19960;-76
2023/10/31 00:11:23;;;;;;;;;;;11.90;99.90;;;;;;5063611;28;19929;-76
2023/10/31 00:13:49;;;;;;;;;;;11.80;99.90;;;;;;5064014;28;19992;-75
2023/10/31 00:16:16;;;;;;;;;;;11.80;99.90;;;;;;5064227;28;20011;-76
2023/10/31 00:18:42;;;;;;;;;;;11.80;99.90;;;;;;5063243;28;19984;-75
2023/10/31 00:21:09;;;;;;;;;;;11.80;99.90;;;;;;5063934;28;19987;-76
2023/10/31 00:23:43;;;;;;;;;;;11.80;99.90;;;;;;5064105;28;19987;-76
2023/10/31 00:26:11;;;;;;;;;;;11.70;99.90;;;;;;5063888;28;19980;-76
2023/10/31 00:28:37;;;;;;;;;;;11.80;99.90;;;;;;5061804;28;20249;-75
2023/10/31 00:31:05;;;;;;;;;;;11.80;99.90;;;;;;5063663;28;19993;-75
2023/10/31 00:33:31;;;;;;;;;;;11.80;99.90;;;;;;5063932;28;19948;-76
2023/10/31 00:35:58;;;;;;;;;;;11.70;99.90;;;;;;5063704;28;20003;-75
2023/10/31 00:38:24;;;;;;;;;;;11.60;99.90;;;;;;5063164;28;19920;-75
2023/10/31 00:40:51;;;;;;;;;;;11.60;99.90;;;;;;5063804;28;19927;-76
2023/10/31 00:43:19;;;;;;;;;;;11.60;99.90;;;;;;5063786;28;20240;-76
2023/10/31 00:45:46;;;;;;;;;;;11.60;99.90;;;;;;5063727;28;19952;-75
2023/10/31 00:48:12;;;;;;;;;;;11.60;99.90;;;;;;5063091;28;19987;-75
2023/10/31 00:50:39;;;;;;;;;;;11.70;99.90;;;;;;5063337;28;19955;-76
2023/10/31 00:53:05;;;;;;;;;;;11.60;99.90;;;;;;5063622;28;20170;-76
2023/10/31 00:55:32;;;;;;;;;;;11.70;99.90;;;;;;5063597;28;19920;-75
2023/10/31 00:57:59;;;;;;;;;;;11.70;99.90;;;;;;5062557;28;19983;-76
2023/10/31 01:00:27;;;;;;;;;;;11.70;99.90;;;;;;5063495;28;19995;-76
2023/10/31 01:02:53;;;;;;;;;;;11.70;99.90;;;;;;5063309;28;19959;-75
2023/10/31 01:05:20;;;;;;;;;;;11.60;99.90;;;;;;5063636;28;19924;-76
2023/10/31 01:07:46;;;;;;;;;;;11.70;99.90;;;;;;5062828;28;19920;-75
2023/10/31 01:10:13;;;;;;;;;;;11.60;99.90;;;;;;5063400;28;19921;-76
2023/10/31 01:12:39;;;;;;;;;;;11.60;99.90;;;;;;5062604;28;19920;-76
2023/10/31 01:15:07;;;;;;;;;;;11.60;99.90;;;;;;5063574;28;19921;-76
2023/10/31 01:17:35;;;;;;;;;;;11.60;99.90;;;;;;5063210;28;19921;-76
2023/10/31 01:20:02;;;;;;;;;;;11.60;99.90;;;;;;5062858;28;19921;-76
2023/10/31 01:22:28;;;;;;;;;;;11.60;99.90;;;;;;5063473;28;19921;-76
2023/10/31 01:24:55;;;;;;;;;;;11.60;99.90;;;;;;5063252;28;20288;-76
2023/10/31 01:27:22;;;;;;;;;;;11.50;99.90;;;;;;5063093;28;19988;-75
2023/10/31 01:29:48;;;;;;;;;;;11.50;99.90;;;;;;5062958;28;20106;-76
2023/10/31 01:32:15;;;;;;;;;;;11.50;99.90;;;;;;5067342;28;19927;-75
2023/10/31 01:34:43;;;;;;;;;;;11.50;99.90;;;;;;5067385;28;20021;-75
2023/10/31 01:37:09;;;;;;;;;;;11.50;99.90;;;;;;5067228;28;19948;-75
2023/10/31 01:39:36;;;;;;;;;;;11.50;99.90;;;;;;5066333;28;19920;-75
2023/10/31 01:42:03;;;;;;;;;;;11.50;99.90;;;;;;5061313;28;19953;-75
2023/10/31 01:44:30;;;;;;;;;;;11.40;99.90;;;;;;5066926;28;19921;-75
2023/10/31 01:46:56;;;;;;;;;;;11.30;99.90;;;;;;5066672;28;19927;-75
2023/10/31 01:49:23;;;;;;;;;;;11.30;99.90;;;;;;5066402;28;20137;-75
2023/10/31 01:51:51;;;;;;;;;;;11.20;99.90;;;;;;5066982;28;19948;-76
2023/10/31 01:54:18;;;;;;;;;;;11.10;99.90;;;;;;5066949;28;19952;-75
2023/10/31 01:56:45;;;;;;;;;;;11.00;99.90;;;;;;5066898;28;20146;-75
2023/10/31 01:59:11;;;;;;;;;;;11.00;99.90;;;;;;5066019;28;20072;-75
2023/10/31 02:01:39;;;;;;;;;;;10.90;99.90;;;;;;5066866;28;19987;-75
2023/10/31 02:04:05;;;;;;;;;;;10.80;99.90;;;;;;5066763;28;19983;-76
2023/10/31 02:06:32;;;;;;;;;;;10.70;99.90;;;;;;5066538;28;19994;-75
2023/10/31 02:09:00;;;;;;;;;;;10.70;99.90;;;;;;5064605;28;19987;-76
2023/10/31 02:11:27;;;;;;;;;;;10.70;99.90;;;;;;5066745;28;20170;-75
2023/10/31 02:13:54;;;;;;;;;;;10.60;99.90;;;;;;5066273;28;20402;-75
2023/10/31 02:16:20;;;;;;;;;;;10.60;99.90;;;;;;5066603;28;19999;-75
2023/10/31 02:18:47;;;;;;;;;;;10.60;99.90;;;;;;5065795;28;19921;-76
2023/10/31 02:21:13;;;;;;;;;;;10.60;99.90;;;;;;5066282;28;19927;-76
2023/10/31 02:23:41;;;;;;;;;;;10.60;99.90;;;;;;5066564;28;19928;-75
2023/10/31 02:26:08;;;;;;;;;;;10.60;99.90;;;;;;5066590;28;20262;-76
2023/10/31 02:28:34;;;;;;;;;;;10.50;99.90;;;;;;5065799;28;19993;-76
2023/10/31 02:31:01;;;;;;;;;;;10.50;99.90;;;;;;5066346;28;19920;-75
2023/10/31 02:33:28;;;;;;;;;;;10.50;99.90;;;;;;5066549;28;20166;-75
2023/10/31 02:35:54;;;;;;;;;;;10.50;99.90;;;;;;5066051;28;19960;-76
2023/10/31 02:38:21;;;;;;;;;;;10.60;99.90;;;;;;5065817;28;19971;-76
2023/10/31 02:40:49;;;;;;;;;;;10.60;99.90;;;;;;5066106;28;19927;-75
2023/10/31 02:43:15;;;;;;;;;;;10.60;99.90;;;;;;5064850;28;19988;-75
2023/10/31 02:45:42;;;;;;;;;;;10.50;99.90;;;;;;5065828;28;19992;-75
2023/10/31 02:48:09;;;;;;;;;;;10.60;99.90;;;;;;5063463;28;19920;-76
2023/10/31 02:50:35;;;;;;;;;;;10.50;99.90;;;;;;5065482;28;20121;-75
2023/10/31 02:53:02;;;;;;;;;;;10.50;99.90;;;;;;5065626;28;19983;-75
2023/10/31 02:55:28;;;;;;;;;;;10.50;99.90;;;;;;5065898;28;20103;-76
2023/10/31 02:57:56;;;;;;;;;;;10.50;99.90;;;;;;5064789;28;20003;-75
2023/10/31 03:00:23;;;;;;;;;;;10.30;99.90;;;;;;5065690;28;19983;-76
2023/10/31 03:02:50;;;;;;;;;;;10.30;99.90;;;;;;5065450;28;19971;-75
2023/10/31 03:05:16;;;;;;;;;;;10.40;99.90;;;;;;5065611;28;19921;-76
2023/10/31 03:07:44;;;;;;;;;;;10.40;99.90;;;;;;5063986;28;19929;-75
2023/10/31 03:10:10;;;;;;;;;;;10.30;99.90;;;;;;5065269;28;19967;-76
2023/10/31 03:12:37;;;;;;;;;;;10.30;99.90;;;;;;5065808;28;19952;-74
2023/10/31 03:15:06;;;;;;;;;;;10.20;99.90;;;;;;5064977;28;19943;-75
2023/10/31 03:17:32;;;;;;;;;;;10.20;99.90;;;;;;5064903;28;19959;-76
2023/10/31 03:19:59;;;;;;;;;;;10.20;99.90;;;;;;5065100;28;19987;-76
2023/10/31 03:22:26;;;;;;;;;;;10.10;99.90;;;;;;5065430;28;19927;-75
2023/10/31 03:24:52;;;;;;;;;;;10.10;99.90;;;;;;5065970;28;19956;-75
2023/10/31 03:27:19;;;;;;;;;;;10.10;99.90;;;;;;5073707;28;20083;-75
2023/10/31 03:29:45;;;;;;;;;;;10.00;99.90;;;;;;5066854;28;19980;-75
2023/10/31 03:32:15;;;;;;;;;;;10.00;99.90;;;;;;5066824;28;19920;-76
2023/10/31 03:34:42;;;;;;;;;;;10.00;99.90;;;;;;5063461;28;19952;-75
2023/10/31 03:37:08;;;;;;;;;;;10.00;99.90;;;;;;5065155;28;19957;-75
2023/10/31 03:39:35;;;;;;;;;;;10.00;99.90;;;;;;5064433;28;19920;-77
2023/10/31 03:42:02;;;;;;;;;;;9.90;99.90;;;;;;5065100;28;19927;-76
2023/10/31 03:44:28;;;;;;;;;;;9.90;99.90;;;;;;5065028;28;19943;-76
2023/10/31 03:46:55;;;;;;;;;;;9.90;99.90;;;;;;5064632;28;19927;-76
2023/10/31 03:49:23;;;;;;;;;;;9.90;99.90;;;;;;5063972;28;19984;-76
2023/10/31 03:51:49;;;;;;;;;;;9.90;99.90;;;;;;5064835;28;19979;-76
2023/10/31 03:54:18;;;;;;;;;;;9.80;99.90;;;;;;5064452;28;19988;-76
2023/10/31 03:56:44;;;;;;;;;;;9.80;99.90;;;;;;5064193;28;19964;-76
2023/10/31 03:59:11;;;;;;;;;;;9.80;99.90;;;;;;5063950;28;20264;-76
2023/10/31 04:01:38;;;;;;;;;;;9.80;99.90;;;;;;5064551;28;19921;-75
2023/10/31 04:04:04;;;;;;;;;;;9.80;99.90;;;;;;5058327;28;19953;-76
2023/10/31 04:06:32;;;;;;;;;;;9.80;99.90;;;;;;5068619;28;20245;-76
2023/10/31 04:08:59;;;;;;;;;;;9.80;99.90;;;;;;5062165;28;19935;-75
2023/10/31 04:11:26;;;;;;;;;;;9.80;99.90;;;;;;5063493;28;19921;-75
2023/10/31 04:13:52;;;;;;;;;;;9.80;99.90;;;;;;5063992;28;19963;-76
2023/10/31 04:16:19;;;;;;;;;;;9.80;99.90;;;;;;5064210;28;19921;-76
2023/10/31 04:18:45;;;;;;;;;;;9.80;99.90;;;;;;5063251;28;19983;-76
2023/10/31 04:21:12;;;;;;;;;;;9.80;99.90;;;;;;5064370;28;19984;-75
2023/10/31 04:23:40;;;;;;;;;;;9.80;99.90;;;;;;5063936;28;19927;-75
2023/10/31 04:26:07;;;;;;;;;;;9.80;99.90;;;;;;5064271;28;19956;-75
2023/10/31 04:28:33;;;;;;;;;;;9.80;99.90;;;;;;5063640;28;19920;-75
2023/10/31 04:31:00;;;;;;;;;;;9.70;99.90;;;;;;5064043;28;19921;-75
2023/10/31 04:33:26;;;;;;;;;;;9.70;99.90;;;;;;5063980;28;19943;-75
2023/10/31 04:35:53;;;;;;;;;;;9.70;99.90;;;;;;5063880;28;19921;-75
2023/10/31 04:38:20;;;;;;;;;;;9.70;99.90;;;;;;5063022;28;19956;-76
2023/10/31 04:40:47;;;;;;;;;;;9.70;99.90;;;;;;5063633;28;19929;-76
2023/10/31 04:43:16;;;;;;;;;;;9.60;99.90;;;;;;5063079;28;20947;-76
2023/10/31 04:45:43;;;;;;;;;;;9.60;99.90;;;;;;5063899;28;19984;-75
2023/10/31 04:48:10;;;;;;;;;;;9.60;99.90;;;;;;5063249;28;19996;-76
2023/10/31 04:50:36;;;;;;;;;;;9.60;99.90;;;;;;5063511;28;19979;-75
2023/10/31 04:53:03;;;;;;;;;;;9.60;99.90;;;;;;5055441;28;19927;-76
2023/10/31 04:55:29;;;;;;;;;;;9.60;99.90;;;;;;5063838;28;19984;-75
2023/10/31 04:57:58;;;;;;;;;;;9.60;99.90;;;;;;5062923;28;19996;-76
2023/10/31 05:00:24;;;;;;;;;;;9.60;99.90;;;;;;5063392;28;19965;-75
2023/10/31 05:02:51;;;;;;;;;;;9.60;99.90;;;;;;5063602;28;19921;-76
2023/10/31 05:05:17;;;;;;;;;;;9.60;99.90;;;;;;5062682;28;19979;-74
2023/10/31 05:07:44;;;;;;;;;;;9.60;99.90;;;;;;5063242;28;19928;-76
2023/10/31 05:10:11;;;;;;;;;;;9.60;99.90;;;;;;5063586;28;20095;-76
2023/10/31 05:12:37;;;;;;;;;;;9.60;99.90;;;;;;5062749;28;19927;-75
2023/10/31 05:15:06;;;;;;;;;;;9.60;99.90;;;;;;5055536;28;20153;-76
2023/10/31 05:17:33;;;;;;;;;;;9.60;99.90;;;;;;5062897;28;19984;-75
2023/10/31 05:19:59;;;;;;;;;;;9.60;99.90;;;;;;5062766;28;19980;-76
2023/10/31 05:22:26;;;;;;;;;;;9.70;99.90;;;;;;5063470;28;19921;-75
2023/10/31 05:24:53;;;;;;;;;;;9.70;99.90;;;;;;5063266;28;19927;-75
2023/10/31 05:27:20;;;;;;;;;;;9.60;99.90;;;;;;5063451;28;20008;-76
2023/10/31 05:29:47;;;;;;;;;;;9.60;99.90;;;;;;5062741;28;19956;-75
2023/10/31 05:32:15;;;;;;;;;;;9.60;99.90;;;;;;5063605;28;19983;-75
2023/10/31 05:34:41;;;;;;;;;;;9.60;99.90;;;;;;5063548;28;19956;-75
2023/10/31 05:37:08;;;;;;;;;;;9.60;99.90;;;;;;5064144;28;19985;-74
2023/10/31 05:39:36;;;;;;;;;;;9.60;99.90;;;;;;5063560;28;20158;-75
2023/10/31 05:42:03;;;;;;;;;;;9.60;99.90;;;;;;5065457;28;19952;-75
2023/10/31 05:44:30;;;;;;;;;;;9.50;99.90;;;;;;5080771;28;19976;-75
2023/10/31 05:46:57;;;;;;;;;;;9.50;99.90;;;;;;5061649;28;20110;-75
2023/10/31 05:49:25;;;;;;;;;;;9.40;99.90;;;;;;5067952;28;19920;-75
2023/10/31 05:51:52;;;;;;;;;;;9.40;99.90;;;;;;5063377;28;19988;-75
2023/10/31 05:54:19;;;;;;;;;;;9.50;99.90;;;;;;5071694;28;19925;-72
2023/10/31 05:56:45;;;;;;;;;;;9.50;99.90;;;;;;5071829;28;19959;-75
2023/10/31 05:59:12;;;;;;;;;;;9.40;99.90;;;;;;5066704;28;19952;-75
2023/10/31 06:01:39;;;;;;;;;;;9.40;99.90;;;;;;5069103;28;19920;-75
2023/10/31 06:04:06;;;;;;;;;;;9.40;99.90;;;;;;5063593;28;19984;-74
2023/10/31 06:06:34;;;;;;;;;;;9.50;99.90;;;;;;5063266;28;19963;-75
2023/10/31 06:09:00;;;;;;;;;;;9.40;99.90;;;;;;5062161;28;19943;-75
2023/10/31 06:11:27;;;;;;;;;;;9.50;99.90;;;;;;5062823;28;19921;-75
2023/10/31 06:13:53;;;;;;;;;;;9.40;99.90;;;;;;5063103;28;19991;-75
2023/10/31 06:16:21;;;;;;;;;;;9.40;99.90;;;;;;5063598;28;19920;-75
2023/10/31 06:18:47;;;;;;;;;;;9.40;99.90;;;;;;5071899;28;19962;-75
2023/10/31 06:21:14;;;;;;;;;;;9.50;99.90;;;;;;5069139;28;19995;-75
2023/10/31 06:23:44;;;;;;;;;;;9.50;99.90;;;;;;5075536;28;19921;-75
2023/10/31 06:26:10;;;;;;;;;;;9.50;99.90;;;;;;5066240;28;19924;-75
2023/10/31 06:28:39;;;;;;;;;;;9.50;99.90;;;;;;5071486;28;19953;-74
2023/10/31 06:31:06;;;;;;;;;;;9.50;99.90;;;;;;5070806;28;20118;-74
2023/10/31 06:33:33;;;;;;;;;;;9.50;99.90;;;;;;5066352;28;19921;-74
2023/10/31 06:35:59;;;;;;;;;;;9.50;99.90;;;;;;5066000;28;20309;-75
2023/10/31 06:38:26;;;;;;;;;;;9.50;99.90;;;;;;5064680;28;19988;-75
2023/10/31 06:40:54;;;;;;;;;;;9.50;99.90;;;;;;5066115;28;20155;-75
2023/10/31 06:43:20;;;;;;;;;;;9.50;99.90;;;;;;5066069;28;20166;-75
2023/10/31 06:45:47;;;;;;;;;;;9.60;99.90;;;;;;5066046;28;19996;-75
2023/10/31 06:48:14;;;;;;;;;;;9.60;99.90;;;;;;5065218;28;19979;-75
2023/10/31 06:50:45;;;;;;;;;;;9.60;99.90;;;;;;5066075;28;19980;-76
2023/10/31 06:53:12;;;;;;;;;;;9.60;99.90;;;;;;5066243;28;20185;-78
2023/10/31 06:55:42;;;;;;;;;;;9.60;99.90;;;;;;5066430;28;19955;-77
2023/10/31 06:58:10;;;;;;;;;;;9.70;99.90;;;;;;5065011;28;19921;-77
2023/10/31 07:00:37;;;;;;;;;;;9.60;99.90;;;;;;5066336;28;19928;-75
2023/10/31 07:03:08;;;;;;;;;;;9.60;99.90;;;;;;5057505;28;19967;-75
2023/10/31 07:05:35;;;;;;;;;;;9.60;99.90;;;;;;5061883;28;19920;-75
2023/10/31 07:08:03;;;;;;;;;;;9.60;99.90;;;;;;5065020;28;19959;-75
2023/10/31 07:10:29;;;;;;;;;;;9.70;99.90;;;;;;5065840;28;19984;-75
2023/10/31 07:12:56;;;;;;;;;;;9.70;99.90;;;;;;5065544;28;19928;-75
2023/10/31 07:15:24;;;;;;;;;;;9.60;99.90;;;;;;5065529;28;19920;-75
2023/10/31 07:17:51;;;;;;;;;;;9.60;99.90;;;;;;5065059;28;19991;-76
2023/10/31 07:20:18;;;;;;;;;;;9.70;99.90;;;;;;5065903;28;19921;-75
2023/10/31 07:22:45;;;;;;;;;;;9.70;99.90;;;;;;5065529;28;20024;-76
2023/10/31 07:25:11;;;;;;;;;;;9.70;99.90;;;;;;5065597;28;19928;-75
2023/10/31 07:27:38;;;;;;;;;;;9.70;99.90;;;;;;5064383;28;19987;-76
2023/10/31 07:30:06;;;;;;;;;;;9.70;99.90;;;;;;5064445;28;19984;-75
2023/10/31 07:32:34;;;;;;;;;;;9.70;99.90;;;;;;5065341;28;19944;-75
2023/10/31 07:34:59;;;;;;;;;;;9.80;99.90;;;;;;5065120;28;20000;-75
2023/10/31 07:37:26;;;;;;;;;;;9.80;99.90;;;;;;5063983;28;20210;-76
2023/10/31 07:39:52;;;;;;;;;;;9.80;99.90;;;;;;5064902;28;19920;-75
2023/10/31 07:42:19;;;;;;;;;;;9.90;99.90;;;;;;5065002;28;20209;-76
2023/10/31 07:44:46;;;;;;;;;;;9.90;99.90;;;;;;5064801;28;19959;-75
2023/10/31 07:47:12;;;;;;;;;;;9.90;99.90;;;;;;5064722;28;19928;-75
2023/10/31 07:49:41;;;;;;;;;;;9.90;99.90;;;;;;5063998;28;19948;-75
2023/10/31 07:52:07;;;;;;;;;;;9.90;99.90;;;;;;5064786;28;19921;-75
2023/10/31 07:54:34;;;;;;;;;;;9.90;99.90;;;;;;5064604;28;20129;-75
2023/10/31 07:57:01;;;;;;;;;;;9.90;99.90;;;;;;5064617;28;19927;-76
2023/10/31 07:59:27;;;;;;;;;;;9.90;99.90;;;;;;5064153;28;20163;-75
2023/10/31 08:01:54;;;;;;;;;;;9.90;99.90;;;;;;5064319;28;19980;-75
2023/10/31 08:04:21;;;;;;;;;;;10.00;99.90;;;;;;5064595;28;19943;-75
2023/10/31 08:06:49;;;;;;;;;;;9.90;99.90;;;;;;5064150;28;19952;-75
2023/10/31 08:09:16;;;;;;;;;;;9.90;99.90;;;;;;5062811;28;19983;-75
2023/10/31 08:11:42;;;;;;;;;;;9.80;99.90;;;;;;5064668;28;19928;-75
2023/10/31 08:14:10;;;;;;;;;;;9.70;99.90;;;;;;5064176;28;20215;-75
2023/10/31 08:16:36;;;;;;;;;;;9.70;99.90;;;;;;5064141;28;19927;-75
2023/10/31 08:19:03;;;;;;;;;;;9.70;99.90;;;;;;5063030;28;19959;-75
2023/10/31 08:21:34;;;;;;;;;;;9.70;99.90;;;;;;5064319;28;19988;-75
2023/10/31 08:24:02;;;;;;;;;;;9.70;99.90;;;;;;5064199;28;19920;-76
2023/10/31 08:26:29;;;;;;;;;;;9.70;99.90;;;;;;5064166;28;19921;-75
2023/10/31 08:28:56;;;;;;;;;;;9.80;99.90;;;;;;5055255;28;19955;-75
2023/10/31 08:31:23;;;;;;;;;;;9.80;99.90;;;;;;5063882;28;19959;-74
2023/10/31 08:33:49;;;;;;;;;;;9.80;99.90;;;;;;5063909;28;20237;-75
2023/10/31 08:36:16;;;;;;;;;;;9.90;99.90;;;;;;5063704;28;19963;-75
2023/10/31 08:38:43;;;;;;;;;;;9.90;99.90;;;;;;5062262;28;19991;-74
2023/10/31 08:41:11;;;;;;;;;;;9.90;99.90;;;;;;5064108;28;19976;-76
2023/10/31 08:43:37;;;;;;;;;;;9.90;99.90;;;;;;5063596;28;19921;-75
2023/10/31 08:46:04;;;;;;;;;;;9.90;99.90;;;;;;5055983;28;19952;-75
2023/10/31 08:48:31;;;;;;;;;;;9.80;99.90;;;;;;5063209;28;19921;-75
2023/10/31 08:50:58;;;;;;;;;;;9.80;99.90;;;;;;5063355;28;20117;-74
2023/10/31 08:53:24;;;;;;;;;;;9.80;99.90;;;;;;5063883;28;20032;-74
2023/10/31 08:55:51;;;;;;;;;;;9.90;99.90;;;;;;5063761;28;19955;-75
2023/10/31 08:58:19;;;;;;;;;;;9.80;99.90;;;;;;5062639;28;20210;-75
2023/10/31 09:00:46;;;;;;;;;;;9.80;99.90;;;;;;5063820;28;19920;-74
2023/10/31 09:03:12;;;;;;;;;;;9.70;99.90;;;;;;5063819;28;20126;-74
2023/10/31 09:05:39;;;;;;;;;;;9.70;99.90;;;;;;5061931;28;19959;-75
2023/10/31 09:08:06;;;;;;;;;;;9.70;99.90;;;;;;5062923;28;19921;-75
2023/10/31 09:10:33;;;;;;;;;;;9.70;99.90;;;;;;5063622;28;19920;-74
2023/10/31 09:12:59;;;;;;;;;;;9.70;99.90;;;;;;5063127;28;19955;-74
2023/10/31 09:15:27;;;;;;;;;;;9.70;99.90;;;;;;5063427;28;19959;-74
2023/10/31 09:17:54;;;;;;;;;;;9.70;99.90;;;;;;5062438;28;19992;-75
2023/10/31 09:20:21;;;;;;;;;;;9.70;99.90;;;;;;5063568;28;19953;-75
2023/10/31 09:22:47;;;;;;;;;;;9.70;99.90;;;;;;5063575;28;19924;-74
2023/10/31 09:25:14;;;;;;;;;;;9.70;99.90;;;;;;5063593;28;19988;-75
2023/10/31 09:27:41;;;;;;;;;;;9.70;99.90;;;;;;5063025;28;19983;-75
2023/10/31 09:30:08;;;;;;;;;;;9.70;99.90;;;;;;5062959;28;19921;-74
2023/10/31 09:32:36;;;;;;;;;;;9.70;99.90;;;;;;5063272;28;20203;-75
2023/10/31 09:35:03;;;;;;;;;;;9.60;99.90;;;;;;5063133;28;19963;-74
2023/10/31 09:37:30;;;;;;;;;;;9.70;99.90;;;;;;5062842;28;19955;-75
2023/10/31 09:39:56;;;;;;;;;;;9.70;99.90;;;;;;5062902;28;19921;-75
2023/10/31 09:42:23;;;;;;;;;;;9.70;99.90;;;;;;5063378;28;20155;-74
2023/10/31 09:44:50;;;;;;;;;;;9.80;99.90;;;;;;5063189;28;20248;-75
2023/10/31 09:47:16;;;;;;;;;;;9.80;99.90;;;;;;5063049;28;19952;-76
2023/10/31 09:49:45;;;;;;;;;;;9.80;99.90;;;;;;5062061;28;19921;-75
2023/10/31 09:52:12;;;;;;;;;;;9.90;99.90;;;;;;5065323;28;19935;-74
2023/10/31 09:54:39;;;;;;;;;;;9.80;99.90;;;;;;5066428;28;19984;-74
2023/10/31 09:57:05;;;;;;;;;;;9.90;99.90;;;;;;5066749;28;19921;-74
2023/10/31 09:59:32;;;;;;;;;;;9.90;99.90;;;;;;5066494;28;19921;-74
2023/10/31 10:01:59;;;;;;;;;;;10.00;99.90;;;;;;5066967;28;19964;-74
2023/10/31 10:04:25;;;;;;;;;;;10.00;99.90;;;;;;5066646;28;20258;-74
2023/10/31 10:06:58;;;;;;;;;;;10.00;99.90;;;;;;5065028;28;20210;-74
2023/10/31 10:09:25;;;;;;;;;;;10.10;99.90;;;;;;5065643;28;19997;-74
2023/10/31 10:11:52;;;;;;;;;;;10.10;99.90;;;;;;5064830;28;19921;-75
2023/10/31 10:14:19;;;;;;;;;;;10.10;99.90;;;;;;5064819;28;20246;-75
2023/10/31 10:16:45;;;;;;;;;;;10.20;99.90;;;;;;5066154;28;19921;-74
2023/10/31 10:19:16;;;;;;;;;;;10.20;99.90;;;;;;5065945;28;19971;-74
2023/10/31 10:21:47;;;;;;;;;;;10.30;99.90;;;;;;5067173;28;19960;-75
2023/10/31 10:24:15;;;;;;;;;;;10.20;99.90;;;;;;5066220;28;20200;-76
2023/10/31 10:26:42;;;;;;;;;;;10.20;99.90;;;;;;5066217;28;19948;-74
2023/10/31 10:29:08;;;;;;;;;;;10.10;99.90;;;;;;5065501;28;19920;-73
2023/10/31 10:31:35;;;;;;;;;;;10.20;99.90;;;;;;5066491;28;19987;-75
2023/10/31 10:34:02;;;;;;;;;;;10.20;99.90;;;;;;5066014;28;19927;-73
2023/10/31 10:36:29;;;;;;;;;;;10.10;99.90;;;;;;5066354;28;20251;-73
2023/10/31 10:38:57;;;;;;;;;;;10.20;99.90;;;;;;5066491;28;19921;-74
2023/10/31 10:41:26;;;;;;;;;;;10.10;99.90;;;;;;5066443;28;19961;-73
2023/10/31 10:43:56;;;;;;;;;;;10.00;99.90;;;;;;5066061;28;19987;-74
2023/10/31 10:46:25;;;;;;;;;;;10.00;99.90;;;;;;5066032;28;19983;-74
2023/10/31 10:48:55;;;;;;;;;;;9.90;99.90;;;;;;5065348;28;19952;-74
2023/10/31 10:51:26;;;;;;;;;;;10.00;99.90;;;;;;5066235;28;19956;-75
2023/10/31 10:53:56;;;;;;;;;;;10.00;99.90;;;;;;5066109;28;19921;-75
2023/10/31 10:56:27;;;;;;;;;;;10.00;99.90;;;;;;5066194;28;19927;-74
2023/10/31 10:58:59;;;;;;;;;;;10.00;99.90;;;;;;5065345;28;19959;-74
2023/10/31 11:01:27;;;;;;;;;;;10.00;99.90;;;;;;5066646;28;19920;-75
2023/10/31 11:03:54;;;;;;;;;;;10.00;99.90;;;;;;5065308;28;19920;-74
2023/10/31 11:06:21;;;;;;;;;;;10.00;99.90;;;;;;5065924;28;20280;-75
2023/10/31 11:08:48;;;;;;;;;;;10.10;99.90;;;;;;5064176;28;19952;-75
2023/10/31 11:11:16;;;;;;;;;;;10.10;99.90;;;;;;5065709;28;19984;-74
2023/10/31 11:13:44;;;;;;;;;;;10.10;99.90;;;;;;5065502;28;19920;-74
2023/10/31 11:16:14;;;;;;;;;;;10.10;99.90;;;;;;5065312;28;19921;-75
2023/10/31 11:18:41;;;;;;;;;;;10.20;99.90;;;;;;5064483;28;19960;-75
2023/10/31 11:21:08;;;;;;;;;;;10.30;99.90;;;;;;5065581;28;20174;-75
2023/10/31 11:23:34;;;;;;;;;;;10.40;99.90;;;;;;5065257;28;19960;-74
2023/10/31 11:26:01;;;;;;;;;;;10.40;99.90;;;;;;5065394;28;19921;-75
2023/10/31 11:28:28;;;;;;;;;;;10.40;99.90;;;;;;5064674;28;19988;-74
2023/10/31 11:31:00;;;;;;;;;;;10.40;99.90;;;;;;5064903;28;20126;-75
2023/10/31 11:33:28;;;;;;;;;;;10.50;99.90;;;;;;5065332;28;19927;-74
2023/10/31 11:36:00;;;;;;;;;;;10.50;99.90;;;;;;5065293;28;19952;-74
2023/10/31 11:38:31;;;;;;;;;;;10.50;99.90;;;;;;5064504;28;19963;-75
2023/10/31 11:41:02;;;;;;;;;;;10.60;99.90;;;;;;5064839;28;20264;-74
2023/10/31 11:43:37;;;;;;;;;;;10.70;99.90;;;;;;5064731;28;19927;-75
2023/10/31 11:46:04;;;;;;;;;;;10.70;99.90;;;;;;5056761;28;20238;-75
2023/10/31 11:51:28;;;;;;;;;;;11.00;99.90;;;;;;5115225;27;19939;-75
2023/10/31 11:53:54;;;;;;;;;;;11.10;99.90;;;;;;5101242;28;20005;-73
2023/10/31 11:56:21;;;;;;;;;;;11.20;99.90;;;;;;5101252;28;19921;-75
2023/10/31 11:58:55;;;;;;;;;;;11.30;99.90;;;;;;5100414;28;20269;-74
2023/10/31 12:01:22;;;;;;;;;;;11.30;99.90;;;;;;5101151;28;19958;-74
2023/10/31 12:03:49;;;;;;;;;;;11.40;99.90;;;;;;5081546;28;19928;-74
2023/10/31 12:06:17;;;;;;;;;;;11.40;99.90;;;;;;5081854;28;19920;-74
2023/10/31 12:08:47;;;;;;;;;;;11.50;99.90;;;;;;5091241;28;19920;-75
2023/10/31 12:11:15;;;;;;;;;;;11.60;99.90;;;;;;5081122;28;20096;-75
2023/10/31 12:13:42;;;;;;;;;;;11.80;99.90;;;;;;5097292;28;19921;-75
2023/10/31 12:16:10;;;;;;;;;;;11.90;99.90;;;;;;5079264;28;19994;-75
2023/10/31 12:18:38;;;;;;;;;;;11.90;99.90;;;;;;5080338;28;19924;-74
2023/10/31 12:21:07;;;;;;;;;;;11.90;99.90;;;;;;5093061;28;19959;-75
2023/10/31 12:23:33;;;;;;;;;;;11.90;99.90;;;;;;5098683;28;20118;-74
2023/10/31 12:26:01;;;;;;;;;;;11.80;99.90;;;;;;5100676;28;19928;-74
2023/10/31 12:28:28;;;;;;;;;;;11.70;99.90;;;;;;5100053;28;19958;-75
2023/10/31 12:30:56;;;;;;;;;;;11.70;99.90;;;;;;5100232;28;19930;-77
2023/10/31 12:33:24;;;;;;;;;;;11.60;99.90;;;;;;5100761;28;19927;-76
2023/10/31 12:35:51;;;;;;;;;;;11.60;99.90;;;;;;5100446;28;20227;-75
2023/10/31 12:38:18;;;;;;;;;;;11.50;99.90;;;;;;5099754;28;19956;-75
2023/10/31 12:40:45;;;;;;;;;;;11.50;99.90;;;;;;5100390;28;19984;-76
2023/10/31 12:43:13;;;;;;;;;;;11.60;99.90;;;;;;5100521;28;19966;-75
2023/10/31 12:45:40;;;;;;;;;;;11.80;99.90;;;;;;5100185;28;19951;-75
2023/10/31 12:48:08;;;;;;;;;;;11.80;99.90;;;;;;5099782;28;19934;-75
2023/10/31 12:50:36;;;;;;;;;;;11.80;99.90;;;;;;5113438;28;19920;-75
2023/10/31 12:53:03;;;;;;;;;;;11.70;99.90;;;;;;5120474;28;19999;-74
2023/10/31 12:55:30;;;;;;;;;;;11.60;99.90;;;;;;5120249;28;20121;-75
2023/10/31 12:57:57;;;;;;;;;;;11.70;99.90;;;;;;5120451;28;19958;-75
2023/10/31 13:00:31;;;;;;;;;;;11.70;99.90;;;;;;5118876;28;19930;-75
2023/10/31 13:03:00;;;;;;;;;;;11.80;99.90;;;;;;5093605;28;19939;-75
2023/10/31 13:05:27;;;;;;;;;;;11.90;99.90;;;;;;5086722;28;19951;-74
2023/10/31 13:07:55;;;;;;;;;;;11.80;99.90;;;;;;5096103;28;19920;-74
2023/10/31 13:10:22;;;;;;;;;;;11.80;99.90;;;;;;5106795;28;19926;-75
2023/10/31 13:12:49;;;;;;;;;;;11.80;99.90;;;;;;5106590;28;19920;-75
2023/10/31 13:15:16;;;;;;;;;;;11.90;99.90;;;;;;5101357;28;20243;-75
2023/10/31 13:17:44;;;;;;;;;;;12.10;99.90;;;;;;5089087;28;19928;-74
2023/10/31 13:20:11;;;;;;;;;;;12.30;99.90;;;;;;5092959;28;20230;-75
2023/10/31 13:22:38;;;;;;;;;;;12.50;99.90;;;;;;5103115;28;20193;-73
2023/10/31 13:25:07;;;;;;;;;;;12.70;99.90;;;;;;5098224;28;19982;-74
2023/10/31 13:27:35;;;;;;;;;;;13.00;99.90;;;;;;5105632;28;20213;-75
2023/10/31 13:30:01;;;;;;;;;;;13.10;99.90;;;;;;5104536;28;19958;-75
2023/10/31 13:32:28;;;;;;;;;;;13.30;99.90;;;;;;5106301;28;19958;-76
2023/10/31 13:34:56;;;;;;;;;;;13.20;99.90;;;;;;5105852;28;20237;-75
2023/10/31 13:37:23;;;;;;;;;;;13.00;99.90;;;;;;5105633;28;20257;-74
2023/10/31 13:39:49;;;;;;;;;;;12.80;99.90;;;;;;5105597;28;19948;-74
2023/10/31 13:42:17;;;;;;;;;;;12.60;99.90;;;;;;5106303;28;19990;-75
2023/10/31 13:44:43;;;;;;;;;;;12.50;99.90;;;;;;5107601;28;19947;-75
2023/10/31 13:47:10;;;;;;;;;;;12.30;99.90;;;;;;5105668;28;19994;-74
2023/10/31 13:49:37;;;;;;;;;;;12.20;99.90;;;;;;5104980;28;19951;-75
2023/10/31 13:52:06;;;;;;;;;;;12.10;99.90;;;;;;5106053;28;19943;-75
2023/10/31 13:54:32;;;;;;;;;;;11.90;99.90;;;;;;5105784;28;19924;-75
2023/10/31 13:56:59;;;;;;;;;;;11.90;99.90;;;;;;5105741;28;19959;-75
2023/10/31 13:59:26;;;;;;;;;;;11.80;99.90;;;;;;5104865;28;19942;-76
2023/10/31 14:01:52;;;;;;;;;;;11.90;99.90;;;;;;5105843;28;19927;-75
2023/10/31 14:04:19;;;;;;;;;;;11.90;99.90;;;;;;5105512;28;19920;-74
2023/10/31 14:06:46;;;;;;;;;;;11.90;99.90;;;;;;5104323;28;19920;-74
2023/10/31 14:09:14;;;;;;;;;;;11.80;99.90;;;;;;5097488;28;19983;-73
2023/10/31 14:11:41;;;;;;;;;;;11.80;99.90;;;;;;5104978;28;19920;-74
2023/10/31 14:14:10;;;;;;;;;;;11.70;99.90;;;;;;5103918;28;19983;-74
2023/10/31 14:16:36;;;;;;;;;;;11.60;99.90;;;;;;5105205;28;19920;-73
2023/10/31 14:19:03;;;;;;;;;;;11.60;99.90;;;;;;5104758;28;19924;-74
2023/10/31 14:21:30;;;;;;;;;;;11.50;99.90;;;;;;5105407;28;19962;-76
2023/10/31 14:23:57;;;;;;;;;;;11.40;99.90;;;;;;5104774;28;19995;-73
2023/10/31 14:26:25;;;;;;;;;;;11.40;99.90;;;;;;5104899;28;19943;-73